Time;durP1;ratioP1;P1;durP2;ratioP2;P2;SDS_P1;SDS_P2;PMS_P1;PMS_P2;Temp;Humidity;BMP_temperature;BMP_pressure;BME280_temperature;BME280_humidity;BME280_pressure;Samples;Min_cycle;Max_cycle;Signal;HPM_P1;HPM_P2
2022/12/28 21:20:56;;;;;;;58.30;25.90;;;;;;;;;;5068392;28;20407;-65
2022/12/28 21:23:22;;;;;;;47.45;25.30;;;;;;;;;;5067819;28;20071;-73
2022/12/28 21:25:48;;;;;;;52.58;26.05;;;;;;;;;;5067978;28;20074;-70
2022/12/28 21:28:14;;;;;;;46.47;24.63;;;;;;;;;;5067440;28;20028;-69
2022/12/28 21:30:40;;;;;;;53.78;25.45;;;;;;;;;;5067967;28;20032;-67
2022/12/28 21:33:06;;;;;;;50.53;26.17;;;;;;;;;;5068072;28;20111;-73
2022/12/28 21:35:32;;;;;;;57.42;27.05;;;;;;;;;;5068004;28;20044;-65
2022/12/28 21:37:59;;;;;;;54.20;26.25;;;;;;;;;;5067784;28;20064;-65
2022/12/28 21:40:25;;;;;;;50.97;26.20;;;;;;;;;;5067166;28;20119;-69
2022/12/28 21:42:51;;;;;;;50.25;26.23;;;;;;;;;;5067814;28;20076;-62
2022/12/28 21:45:17;;;;;;;57.92;28.42;;;;;;;;;;5067677;28;20029;-63
2022/12/28 21:47:43;;;;;;;50.47;27.80;;;;;;;;;;5067513;28;20031;-65
2022/12/28 21:50:09;;;;;;;64.25;30.35;;;;;;;;;;5063595;28;20041;-72
2022/12/28 21:52:36;;;;;;;51.30;27.58;;;;;;;;;;5058530;28;20033;-74
2022/12/28 21:57:52;;;;;;;40.08;22.25;;;;;;;;;;5067758;28;20040;-66
2022/12/28 22:06:03;;;;;;;38.55;20.85;;;;;;;;;;5067748;28;20043;-66
2022/12/28 22:14:00;;;;;;;39.92;22.17;;;;;;;;;;5056657;28;20035;-71
2022/12/28 22:16:26;;;;;;;40.25;20.77;;;;;;;;;;5054800;28;20028;-65
2022/12/28 22:18:52;;;;;;;36.13;19.67;;;;;;;;;;5055669;28;20182;-65
2022/12/28 22:21:18;;;;;;;34.60;18.00;;;;;;;;;;5056351;28;20370;-66
2022/12/28 22:23:44;;;;;;;32.08;18.27;;;;;;;;;;5054712;28;20032;-68
2022/12/28 22:26:10;;;;;;;32.15;17.95;;;;;;;;;;5055859;28;20036;-64
2022/12/28 22:28:36;;;;;;;31.75;17.75;;;;;;;;;;5056411;28;20468;-68
2022/12/28 22:31:06;;;;;;;36.25;20.45;;;;;;;;;;5047858;28;20021;-64
2022/12/28 22:33:32;;;;;;;35.55;19.85;;;;;;;;;;5049546;28;20563;-63
2022/12/28 22:36:07;;;;;;;35.45;20.63;;;;;;;;;;5048616;28;20033;-65
2022/12/28 22:38:33;;;;;;;36.33;21.30;;;;;;;;;;5053566;28;20033;-68
2022/12/28 22:40:59;;;;;;;39.88;21.65;;;;;;;;;;5049689;28;20033;-65
2022/12/28 22:43:25;;;;;;;42.35;21.80;;;;;;;;;;5041480;28;20025;-64
2022/12/28 22:45:59;;;;;;;40.33;21.35;;;;;;;;;;5043183;28;20028;-63
2022/12/28 22:48:25;;;;;;;37.72;21.67;;;;;;;;;;5042454;28;20032;-64
2022/12/28 22:50:52;;;;;;;41.67;21.90;;;;;;;;;;5040913;28;20392;-63
2022/12/28 22:53:19;;;;;;;47.80;25.60;;;;;;;;;;5042493;28;20013;-64
2022/12/28 22:55:45;;;;;;;47.88;25.55;;;;;;;;;;5042532;28;20030;-67
2022/12/28 22:58:11;;;;;;;50.92;26.77;;;;;;;;;;5041034;28;20041;-64
2022/12/28 23:00:37;;;;;;;56.45;27.48;;;;;;;;;;5042846;28;20360;-68
2022/12/28 23:03:05;;;;;;;60.92;30.70;;;;;;;;;;5042458;28;20520;-64
2022/12/28 23:05:31;;;;;;;55.42;29.33;;;;;;;;;;5048055;28;20472;-73
2022/12/28 23:07:57;;;;;;;55.00;29.65;;;;;;;;;;5053337;28;20040;-68
2022/12/28 23:10:23;;;;;;;54.88;29.35;;;;;;;;;;5044185;28;20021;-64
2022/12/28 23:12:51;;;;;;;60.35;30.83;;;;;;;;;;5042862;28;20526;-64
2022/12/28 23:15:18;;;;;;;60.88;29.20;;;;;;;;;;5041676;28;20112;-70
2022/12/28 23:17:44;;;;;;;53.90;28.00;;;;;;;;;;5041084;28;20419;-72
2022/12/28 23:28:26;;;;;;;42.38;24.38;;;;;;;;;;5042152;28;20033;-73
2022/12/28 23:30:52;;;;;;;39.47;23.13;;;;;;;;;;5040318;28;20820;-64
2022/12/28 23:33:18;;;;;;;37.67;22.25;;;;;;;;;;5041524;28;20025;-65
2022/12/28 23:35:45;;;;;;;37.70;21.55;;;;;;;;;;5046995;28;20033;-68
2022/12/28 23:38:11;;;;;;;38.30;21.55;;;;;;;;;;5051827;28;20021;-70
2022/12/28 23:40:38;;;;;;;38.45;20.73;;;;;;;;;;5052704;28;20058;-68
2022/12/28 23:43:04;;;;;;;38.25;21.30;;;;;;;;;;5045511;28;20013;-63
